Time;durP1;ratioP1;P1;durP2;ratioP2;P2;SDS_P1;SDS_P2;PMS_P1;PMS_P2;Temp;Humidity;BMP_temperature;BMP_pressure;BME280_temperature;BME280_humidity;BME280_pressure;Samples;Min_cycle;Max_cycle;Signal;HPM_P1;HPM_P2
2021/01/26 00:01:20;;;;;;;71.75;32.95;;;;;;;2.85;99.15;100174.13;5040838;28;20072;-80
2021/01/26 00:03:47;;;;;;;63.47;29.98;;;;;;;2.80;99.21;100181.50;5037909;28;20037;-80
2021/01/26 00:06:14;;;;;;;68.10;30.33;;;;;;;2.86;99.34;100182.91;5014832;28;20036;-80
2021/01/26 00:08:40;;;;;;;66.75;29.75;;;;;;;2.81;98.76;100183.84;5024372;28;20040;-80
2021/01/26 00:11:06;;;;;;;68.45;30.35;;;;;;;2.78;99.31;100181.81;5030501;28;20054;-80
2021/01/26 00:13:32;;;;;;;64.57;29.42;;;;;;;2.78;98.96;100176.50;5023405;28;20035;-79
2021/01/26 00:15:57;;;;;;;63.70;29.35;;;;;;;2.79;98.88;100186.03;5047133;28;20069;-80
2021/01/26 00:18:23;;;;;;;62.97;30.50;;;;;;;2.77;98.89;100190.88;5024527;28;20036;-80
2021/01/26 00:20:49;;;;;;;67.28;30.48;;;;;;;2.76;98.63;100189.31;5038838;28;20124;-79
2021/01/26 00:23:15;;;;;;;65.57;30.55;;;;;;;2.78;98.81;100184.47;5037065;28;20524;-80
2021/01/26 00:25:41;;;;;;;67.25;30.80;;;;;;;2.83;98.39;100186.19;5038909;28;20037;-79
2021/01/26 00:28:28;;;;;;;68.78;31.40;;;;;;;2.79;98.78;100185.25;5035524;28;20037;-80
2021/01/26 00:30:53;;;;;;;75.93;33.08;;;;;;;2.85;98.11;100184.78;4966696;28;20042;-79
2021/01/26 00:33:23;;;;;;;72.30;32.17;;;;;;;2.85;98.15;100189.28;4938321;28;20134;-80
2021/01/26 00:35:50;;;;;;;66.85;29.83;;;;;;;2.77;98.38;100187.44;4974843;28;20534;-79
2021/01/26 00:38:15;;;;;;;64.47;28.77;;;;;;;2.69;98.38;100186.38;4988018;28;20069;-80
2021/01/26 00:40:41;;;;;;;65.20;30.48;;;;;;;2.70;98.57;100185.25;4969458;28;20034;-79
2021/01/26 00:43:08;;;;;;;65.05;30.50;;;;;;;2.71;98.42;100187.59;4933965;28;20041;-80
2021/01/26 00:45:34;;;;;;;67.25;30.73;;;;;;;2.74;97.98;100188.84;4959062;28;20182;-79
2021/01/26 00:47:59;;;;;;;66.82;29.75;;;;;;;2.73;98.22;100185.41;4974162;28;20075;-79
2021/01/26 00:50:26;;;;;;;68.43;29.15;;;;;;;2.70;97.98;100203.88;4958385;28;20073;-80
2021/01/26 00:52:54;;;;;;;67.18;30.02;;;;;;;2.56;98.16;100193.38;4956600;28;20170;-80
2021/01/26 00:55:29;;;;;;;69.78;29.65;;;;;;;2.54;98.82;100205.41;4944371;28;20456;-79
2021/01/26 00:57:55;;;;;;;67.32;29.88;;;;;;;2.54;98.31;100205.41;4954547;28;20094;-79
2021/01/26 01:00:29;;;;;;;65.25;29.77;;;;;;;2.53;98.48;100214.50;4974005;28;20030;-80
2021/01/26 01:03:00;;;;;;;61.90;28.27;;;;;;;2.53;98.69;100214.50;4946515;28;20034;-80
2021/01/26 01:05:26;;;;;;;61.67;30.27;;;;;;;2.55;98.06;100207.00;4960800;28;20038;-80
2021/01/26 01:07:53;;;;;;;61.63;28.75;;;;;;;2.53;98.07;100209.97;4993964;28;20140;-79
2021/01/26 01:10:23;;;;;;;61.50;29.45;;;;;;;2.39;97.73;100208.53;5052900;28;20075;-79
2021/01/26 01:12:48;;;;;;;61.58;29.02;;;;;;;2.34;97.75;100214.00;5024988;28;20115;-79
2021/01/26 01:15:15;;;;;;;59.58;28.25;;;;;;;2.26;97.43;100210.25;5037943;28;20068;-79
2021/01/26 01:17:40;;;;;;;58.13;26.65;;;;;;;2.23;97.97;100204.75;5036119;28;20390;-79
2021/01/26 01:20:08;;;;;;;59.55;27.67;;;;;;;2.16;97.50;100204.44;5033099;28;20030;-79
2021/01/26 01:22:33;;;;;;;55.55;26.88;;;;;;;2.15;97.57;100203.66;5034913;28;20057;-80
2021/01/26 01:24:59;;;;;;;61.88;27.63;;;;;;;2.08;98.21;100205.19;5035306;28;20071;-81
2021/01/26 01:27:25;;;;;;;59.42;27.42;;;;;;;2.19;97.83;100209.91;5020039;28;20029;-80
2021/01/26 01:29:51;;;;;;;63.58;28.70;;;;;;;2.16;97.17;100213.19;5012245;28;20036;-80
2021/01/26 01:32:16;;;;;;;58.60;29.08;;;;;;;2.16;97.52;100207.09;5026220;28;20044;-79
2021/01/26 01:34:42;;;;;;;64.00;28.60;;;;;;;2.12;96.98;100203.50;5033987;28;20116;-79
2021/01/26 01:37:07;;;;;;;58.88;27.48;;;;;;;2.16;97.08;100213.19;5035317;28;20056;-79
2021/01/26 01:39:33;;;;;;;62.00;27.55;;;;;;;2.05;96.60;100208.50;5028047;28;20192;-79
2021/01/26 01:41:58;;;;;;;56.92;26.08;;;;;;;2.04;97.10;100204.25;5040949;28;20048;-80
2021/01/26 01:44:24;;;;;;;60.47;27.55;;;;;;;2.04;97.00;100204.25;5027121;28;20472;-79
2021/01/26 01:46:56;;;;;;;60.08;27.40;;;;;;;2.13;96.71;100210.38;5032010;28;20481;-80
2021/01/26 01:49:26;;;;;;;58.85;27.10;;;;;;;2.15;96.14;100206.31;5054902;28;20098;-79
2021/01/26 01:51:54;;;;;;;61.05;28.52;;;;;;;1.97;96.59;100204.72;5024894;28;20041;-79
2021/01/26 01:54:32;;;;;;;66.25;28.15;;;;;;;2.15;96.31;100213.50;5036218;28;20040;-79
2021/01/26 01:57:25;;;;;;;57.83;27.55;;;;;;;2.07;96.14;100214.28;5014051;28;20037;-80
2021/01/26 01:59:57;;;;;;;60.90;26.48;;;;;;;2.13;95.89;100210.38;5032599;28;20041;-80
2021/01/26 02:02:23;;;;;;;58.67;26.80;;;;;;;2.15;95.86;100218.81;5034991;28;20056;-79
2021/01/26 02:04:49;;;;;;;59.05;27.23;;;;;;;2.14;95.53;100209.28;5055628;28;20033;-79
2021/01/26 02:07:16;;;;;;;64.15;28.38;;;;;;;2.00;96.25;100219.22;5046702;28;20143;-79
2021/01/26 02:09:42;;;;;;;61.28;28.45;;;;;;;2.03;96.43;100221.28;5021079;28;20033;-80
2021/01/26 02:12:11;;;;;;;63.35;28.77;;;;;;;2.11;96.19;100221.28;5037192;28;20512;-79
2021/01/26 02:14:41;;;;;;;60.15;28.35;;;;;;;2.07;96.27;100222.22;5037287;28;20485;-80
2021/01/26 02:17:26;;;;;;;65.72;29.75;;;;;;;1.95;97.58;100214.88;5054732;28;20515;-79
2021/01/26 02:19:58;;;;;;;65.07;28.38;;;;;;;2.03;97.14;100214.09;5037010;28;20062;-79
2021/01/26 02:22:48;;;;;;;61.90;28.83;;;;;;;2.04;96.80;100222.84;5007906;28;20124;-80
2021/01/26 02:25:35;;;;;;;61.33;28.08;;;;;;;2.01;97.51;100224.25;5030260;28;20068;-80
2021/01/26 02:28:38;;;;;;;59.30;27.42;;;;;;;1.88;97.15;100213.75;5041299;28;20036;-80
2021/01/26 02:31:24;;;;;;;58.13;24.73;;;;;;;1.94;97.21;100226.56;5026676;28;20037;-80
2021/01/26 02:34:34;;;;;;;61.00;27.75;;;;;;;2.02;96.68;100225.81;5034673;28;20036;-80
2021/01/26 02:37:17;;;;;;;54.63;26.80;;;;;;;1.89;96.50;100225.91;4993198;28;20127;-80
2021/01/26 02:40:10;;;;;;;67.03;28.40;;;;;;;1.94;96.35;100231.06;5044560;28;20066;-80
2021/01/26 02:42:57;;;;;;;59.47;28.15;;;;;;;1.71;97.66;100225.84;5050812;28;20202;-80
2021/01/26 02:45:47;;;;;;;59.33;26.80;;;;;;;1.78;97.92;100231.50;5013929;28;20367;-80
2021/01/26 02:48:16;;;;;;;60.50;27.23;;;;;;;1.86;97.19;100227.31;5015491;28;20098;-80
2021/01/26 02:50:52;;;;;;;64.80;27.35;;;;;;;1.92;96.19;100233.28;5032977;28;20041;-80
2021/01/26 02:53:39;;;;;;;63.45;29.95;;;;;;;1.89;95.88;100233.88;5009007;28;20022;-80
2021/01/26 02:56:42;;;;;;;58.33;26.25;;;;;;;1.90;95.65;100240.78;5064555;28;20120;-80
2021/01/26 02:59:16;;;;;;;62.50;28.42;;;;;;;1.80;96.11;100233.88;5013283;28;20131;-79
2021/01/26 03:01:48;;;;;;;61.75;27.38;;;;;;;1.84;95.75;100235.59;5006406;28;20053;-80
2021/01/26 03:04:24;;;;;;;62.03;27.67;;;;;;;1.76;95.52;100238.97;5011555;28;20036;-80
2021/01/26 03:06:53;;;;;;;58.83;27.90;;;;;;;1.80;95.26;100245.25;5034851;28;20029;-80
2021/01/26 03:09:28;;;;;;;65.60;29.60;;;;;;;1.76;95.61;100246.94;5031001;28;20081;-80
2021/01/26 03:11:56;;;;;;;60.47;27.30;;;;;;;1.75;95.80;100241.94;5042178;28;20032;-80
2021/01/26 03:14:31;;;;;;;57.47;27.92;;;;;;;1.71;95.91;100246.28;5018099;28;20033;-80
2021/01/26 03:17:24;;;;;;;59.22;27.27;;;;;;;1.76;95.45;100248.84;5033042;28;20409;-80
2021/01/26 03:19:51;;;;;;;58.70;26.20;;;;;;;1.70;96.04;100255.34;5015801;28;20083;-80
2021/01/26 03:22:21;;;;;;;60.40;28.70;;;;;;;1.55;96.34;100258.38;5009315;28;20494;-80
2021/01/26 03:24:51;;;;;;;63.05;28.70;;;;;;;1.57;97.42;100262.31;5020957;28;20084;-80
2021/01/26 03:27:22;;;;;;;58.25;26.98;;;;;;;1.59;98.10;100265.44;5045034;28;20044;-80
2021/01/26 03:29:50;;;;;;;58.28;26.90;;;;;;;1.60;98.24;100261.72;5035592;28;20444;-79
2021/01/26 03:32:22;;;;;;;59.28;28.65;;;;;;;1.74;98.73;100269.59;5016291;28;20124;-80
2021/01/26 03:34:48;;;;;;;68.05;30.33;;;;;;;1.70;98.44;100265.97;5033963;28;20029;-80
2021/01/26 03:37:13;;;;;;;66.88;28.65;;;;;;;1.73;99.28;100275.97;5043697;28;20505;-80
2021/01/26 03:39:39;;;;;;;60.13;27.25;;;;;;;1.88;99.13;100269.50;5022538;28;20032;-80
2021/01/26 03:42:05;;;;;;;63.97;29.30;;;;;;;1.98;99.00;100285.13;5032771;28;20095;-80
2021/01/26 03:44:32;;;;;;;62.00;28.70;;;;;;;1.99;98.90;100284.03;5054154;28;20025;-80
2021/01/26 03:47:00;;;;;;;60.33;28.42;;;;;;;1.98;99.04;100282.47;5013679;28;20041;-80
2021/01/26 03:49:29;;;;;;;63.05;28.65;;;;;;;1.87;99.47;100275.88;5037906;28;20028;-80
2021/01/26 03:52:39;;;;;;;61.85;28.00;;;;;;;1.98;99.81;100280.59;5019339;28;20037;-80
2021/01/26 03:55:31;;;;;;;59.53;27.80;;;;;;;2.10;99.62;100283.47;5027811;28;20037;-79
2021/01/26 03:58:09;;;;;;;59.72;27.52;;;;;;;1.95;100.00;100278.56;5018453;28;20041;-80
2021/01/26 04:00:42;;;;;;;59.03;27.60;;;;;;;2.06;100.00;100289.69;5032014;28;20032;-80
2021/01/26 04:03:39;;;;;;;57.92;27.17;;;;;;;2.06;99.81;100289.69;5019466;28;20053;-80
2021/01/26 04:06:29;;;;;;;59.85;26.85;;;;;;;1.82;100.00;100290.03;5037181;28;20483;-79
2021/01/26 04:09:04;;;;;;;58.85;27.13;;;;;;;1.86;100.00;100295.56;5036909;28;20033;-80
2021/01/26 04:12:01;;;;;;;61.80;28.63;;;;;;;2.03;100.00;100280.47;5037335;28;20103;-80
2021/01/26 04:14:34;;;;;;;67.15;28.50;;;;;;;2.23;100.00;100289.72;5029229;28;20041;-80
2021/01/26 04:17:07;;;;;;;67.38;30.48;;;;;;;2.26;99.70;100297.91;5012013;28;20044;-80
2021/01/26 04:19:36;;;;;;;66.18;29.23;;;;;;;2.23;99.60;100301.16;5006829;28;20021;-80
2021/01/26 04:22:21;;;;;;;60.92;28.77;;;;;;;2.18;99.79;100289.88;5037278;28;20413;-80
2021/01/26 04:24:47;;;;;;;63.92;29.08;;;;;;;2.26;99.73;100300.56;4955079;28;20551;-80
2021/01/26 04:27:18;;;;;;;65.40;29.60;;;;;;;2.34;99.96;100305.06;4939006;28;20047;-80
2021/01/26 04:29:43;;;;;;;61.85;28.30;;;;;;;2.34;99.57;100304.31;4971239;28;20046;-80
2021/01/26 04:32:09;;;;;;;62.20;29.63;;;;;;;2.33;99.62;100297.44;4935920;28;20031;-79
2021/01/26 04:34:34;;;;;;;65.00;30.50;;;;;;;2.13;100.00;100305.97;4940343;28;20073;-80
2021/01/26 04:37:00;;;;;;;62.65;28.98;;;;;;;2.05;100.00;100306.72;4934924;28;20549;-81
2021/01/26 04:39:25;;;;;;;57.40;28.02;;;;;;;2.10;100.00;100303.91;4948606;28;20034;-79
2021/01/26 04:42:02;;;;;;;60.65;28.98;;;;;;;2.13;100.00;100303.31;4952476;28;20062;-80
2021/01/26 04:44:46;;;;;;;65.90;28.90;;;;;;;2.20;100.00;100306.28;4962297;28;20035;-80
2021/01/26 04:47:31;;;;;;;61.65;28.98;;;;;;;2.22;100.00;100315.53;4969990;28;20496;-80
2021/01/26 04:50:09;;;;;;;57.08;28.98;;;;;;;2.15;100.00;100314.41;4942319;28;20043;-79
2021/01/26 04:52:55;;;;;;;63.58;29.10;;;;;;;2.27;100.00;100325.22;4972006;28;20031;-80
2021/01/26 04:55:28;;;;;;;63.58;27.92;;;;;;;2.32;100.00;100325.09;4931774;28;20051;-79
2021/01/26 04:58:15;;;;;;;59.03;29.33;;;;;;;2.15;100.00;100325.78;4971009;28;20047;-80
2021/01/26 05:01:06;;;;;;;66.38;29.33;;;;;;;2.07;100.00;100323.88;4958206;28;20037;-79
2021/01/26 05:04:03;;;;;;;60.70;28.17;;;;;;;2.13;100.00;100333.28;5028920;28;20481;-79
2021/01/26 05:06:35;;;;;;;62.25;29.30;;;;;;;2.13;100.00;100337.84;5033373;28;20052;-80
2021/01/26 05:09:05;;;;;;;64.20;29.42;;;;;;;2.13;100.00;100346.56;5023417;28;20402;-80
2021/01/26 05:11:35;;;;;;;65.38;31.05;;;;;;;2.21;100.00;100343.16;5050863;28;20255;-80
2021/01/26 05:14:10;;;;;;;64.63;29.48;;;;;;;2.29;100.00;100337.09;5013573;28;20112;-79
2021/01/26 05:16:50;;;;;;;65.55;31.05;;;;;;;2.35;100.00;100335.09;5036725;28;20640;-80
2021/01/26 05:19:23;;;;;;;65.97;30.50;;;;;;;2.02;100.00;100339.16;5036573;28;20131;-80
2021/01/26 05:21:59;;;;;;;66.32;30.88;;;;;;;2.12;100.00;100344.22;5065550;28;20037;-80
2021/01/26 05:24:28;;;;;;;65.10;30.80;;;;;;;2.12;100.00;100338.91;5026440;28;20028;-80
2021/01/26 05:26:54;;;;;;;65.63;30.27;;;;;;;2.22;100.00;100342.09;5050502;28;20032;-80
2021/01/26 05:29:20;;;;;;;70.40;30.67;;;;;;;2.25;100.00;100338.81;5035831;28;20037;-80
2021/01/26 05:31:52;;;;;;;65.22;30.88;;;;;;;2.16;100.00;100345.97;5032195;28;20539;-80
2021/01/26 05:34:38;;;;;;;63.95;30.48;;;;;;;2.19;100.00;100344.56;5042563;28;20033;-80
2021/01/26 05:37:12;;;;;;;70.13;31.90;;;;;;;2.39;100.00;100347.47;4969478;28;20053;-80
2021/01/26 05:39:45;;;;;;;65.93;31.23;;;;;;;2.40;100.00;100351.66;4969642;28;20081;-79
2021/01/26 05:42:14;;;;;;;64.43;30.85;;;;;;;2.16;100.00;100361.09;4983837;28;20150;-80
2021/01/26 05:45:01;;;;;;;69.53;30.95;;;;;;;2.20;100.00;100362.06;4971748;28;20038;-80
2021/01/26 05:47:31;;;;;;;62.25;29.40;;;;;;;2.15;100.00;100367.53;4903593;29;20047;-79
2021/01/26 05:49:57;;;;;;;67.32;30.50;;;;;;;2.29;100.00;100368.19;4901287;29;20072;-80
2021/01/26 05:52:39;;;;;;;69.50;31.80;;;;;;;2.24;100.00;100365.69;4914740;29;20497;-80
2021/01/26 05:55:15;;;;;;;;;;;;;;;2.24;100.00;100376.31;4914792;29;20138;-80
2021/01/26 05:57:40;;;;;;;64.10;28.83;;;;;;;2.35;100.00;100383.69;4913430;29;20011;-80
2021/01/26 06:00:14;;;;;;;65.80;31.23;;;;;;;2.31;100.00;100388.03;4914008;29;20066;-79
2021/01/26 06:02:39;;;;;;;71.30;31.40;;;;;;;2.30;100.00;100378.53;4898073;29;20043;-80
2021/01/26 06:05:14;;;;;;;65.30;30.83;;;;;;;2.28;100.00;100390.53;4914685;29;20047;-80
2021/01/26 06:07:39;;;;;;;68.25;31.05;;;;;;;2.28;100.00;100390.53;4911302;29;20050;-80
2021/01/26 06:10:23;;;;;;;67.57;31.77;;;;;;;2.32;100.00;100402.88;4914097;29;20091;-80
2021/01/26 06:12:56;;;;;;;62.10;30.40;;;;;;;2.33;100.00;100395.69;4899499;29;20126;-79
2021/01/26 06:15:30;;;;;;;61.13;29.92;;;;;;;2.28;100.00;100412.56;4956129;28;20664;-82
2021/01/26 06:18:20;;;;;;;68.80;30.00;;;;;;;2.33;99.61;100401.00;4961463;28;20133;-79
2021/01/26 06:21:06;;;;;;;69.95;29.38;;;;;;;2.26;99.32;100411.31;4954885;28;20393;-79
2021/01/26 06:23:34;;;;;;;64.90;30.23;;;;;;;2.34;99.00;100407.91;4949335;28;20037;-80
2021/01/26 06:26:06;;;;;;;70.50;31.58;;;;;;;2.33;98.11;100412.44;5033032;28;20549;-80
2021/01/26 06:29:00;;;;;;;64.53;29.60;;;;;;;2.15;98.41;100413.41;5020899;28;20040;-80
2021/01/26 06:31:53;;;;;;;66.38;29.92;;;;;;;2.18;98.55;100414.69;5004528;28;20033;-80
2021/01/26 06:34:41;;;;;;;70.57;30.67;;;;;;;2.19;97.86;100418.94;5027049;28;20029;-80
2021/01/26 06:37:21;;;;;;;69.55;31.25;;;;;;;2.17;97.65;100426.41;5022181;28;20047;-80
2021/01/26 06:40:05;;;;;;;72.28;31.30;;;;;;;2.20;97.55;100420.50;5035519;28;20071;-80
2021/01/26 06:42:48;;;;;;;76.70;32.13;;;;;;;1.86;97.62;100417.63;5027052;28;20044;-80
2021/01/26 06:45:24;;;;;;;73.15;31.65;;;;;;;1.88;98.48;100413.56;5035825;28;20036;-80
2021/01/26 06:48:08;;;;;;;70.75;31.65;;;;;;;1.82;98.11;100422.75;5032949;28;20059;-80
2021/01/26 06:50:45;;;;;;;71.50;31.23;;;;;;;1.89;97.86;100428.44;5017536;28;20036;-79
2021/01/26 06:53:26;;;;;;;76.40;31.23;;;;;;;1.84;98.09;100431.19;5050964;28;20064;-80
2021/01/26 06:56:22;;;;;;;71.57;30.92;;;;;;;1.91;97.30;100436.09;5018897;28;20071;-81
2021/01/26 06:59:14;;;;;;;73.53;32.05;;;;;;;1.96;96.68;100434.09;5031944;28;20025;-80
2021/01/26 07:02:28;;;;;;;72.43;31.90;;;;;;;1.82;97.00;100439.47;5023914;28;20040;-80
2021/01/26 07:05:14;;;;;;;73.70;31.50;;;;;;;1.89;96.66;100452.31;5026457;28;20581;-80
2021/01/26 07:07:59;;;;;;;73.68;32.28;;;;;;;1.96;95.85;100450.00;5029250;28;20868;-80
2021/01/26 07:10:59;;;;;;;72.50;30.08;;;;;;;2.00;95.65;100466.13;5034191;28;20401;-80
2021/01/26 07:13:35;;;;;;;69.85;30.48;;;;;;;1.91;95.56;100471.38;5042857;28;20035;-80
2021/01/26 07:16:38;;;;;;;72.00;31.85;;;;;;;1.92;95.81;100474.81;5018517;28;20037;-80
2021/01/26 07:19:22;;;;;;;72.20;31.42;;;;;;;1.91;95.66;100483.88;4952538;28;20038;-80
2021/01/26 07:21:59;;;;;;;73.72;31.83;;;;;;;1.90;95.79;100495.56;5014345;28;20474;-80
2021/01/26 07:24:42;;;;;;;73.60;31.73;;;;;;;1.87;95.75;100494.31;5009903;28;20030;-80
2021/01/26 07:27:44;;;;;;;68.43;31.10;;;;;;;1.80;95.62;100494.72;5033874;28;20032;-80
2021/01/26 07:30:16;;;;;;;75.78;31.50;;;;;;;1.86;95.94;100500.69;5013496;28;20083;-79
2021/01/26 07:32:42;;;;;;;75.88;31.73;;;;;;;1.84;96.09;100506.28;5011813;28;20041;-80
2021/01/26 07:35:25;;;;;;;80.90;33.00;;;;;;;1.90;95.69;100519.47;5034499;28;20045;-80
2021/01/26 07:38:03;;;;;;;70.53;30.42;;;;;;;1.89;95.76;100521.34;5015055;28;20043;-80
2021/01/26 07:40:41;;;;;;;78.10;32.83;;;;;;;1.79;95.93;100518.91;5015628;28;20127;-80
2021/01/26 07:43:15;;;;;;;68.85;31.05;;;;;;;1.63;96.50;100518.44;5033673;28;20031;-80
2021/01/26 07:46:31;;;;;;;73.90;32.60;;;;;;;1.68;96.88;100513.00;5017494;28;20464;-80
2021/01/26 07:49:22;;;;;;;71.97;32.00;;;;;;;1.74;96.51;100524.31;5003164;28;21180;-80
2021/01/26 07:51:54;;;;;;;73.38;32.10;;;;;;;1.76;95.96;100532.78;4969234;28;21527;-80
2021/01/26 07:54:39;;;;;;;82.10;35.05;;;;;;;1.74;96.54;100540.25;5037075;28;20421;-80
2021/01/26 07:57:05;;;;;;;74.20;35.22;;;;;;;1.64;96.92;100543.91;5017758;28;20047;-80
2021/01/26 07:59:38;;;;;;;83.80;36.53;;;;;;;1.60;97.33;100536.84;5022761;28;20067;-80
2021/01/26 08:02:25;;;;;;;75.30;34.53;;;;;;;1.64;97.74;100543.13;5033329;28;20058;-80
2021/01/26 08:04:52;;;;;;;72.93;34.05;;;;;;;1.73;97.71;100539.47;5030685;28;20032;-80
2021/01/26 08:07:25;;;;;;;78.30;35.83;;;;;;;1.70;97.76;100540.03;5012910;28;20029;-81
2021/01/26 08:09:53;;;;;;;81.93;35.88;;;;;;;1.51;98.13;100535.97;5028147;28;20024;-80
2021/01/26 08:12:37;;;;;;;79.65;35.00;;;;;;;1.59;99.30;100554.59;5012908;28;20033;-80
2021/01/26 08:15:18;;;;;;;74.55;33.92;;;;;;;1.55;99.39;100556.28;5013781;28;20036;-80
2021/01/26 08:17:44;;;;;;;79.57;34.15;;;;;;;1.76;100.00;100556.66;5033590;28;20052;-80
2021/01/26 08:20:31;;;;;;;78.72;35.10;;;;;;;2.00;99.55;100567.00;5032174;28;20500;-80
2021/01/26 08:23:03;;;;;;;74.10;33.00;;;;;;;1.96;99.91;100566.81;5042433;28;20033;-80
2021/01/26 08:25:30;;;;;;;72.65;33.92;;;;;;;2.07;100.00;100573.47;5019478;28;20044;-80
2021/01/26 08:28:11;;;;;;;72.70;35.35;;;;;;;2.08;100.00;100576.91;5022439;28;20120;-80
2021/01/26 08:30:36;;;;;;;75.85;34.63;;;;;;;2.20;100.00;100566.53;5055640;28;20047;-80
2021/01/26 08:33:09;;;;;;;83.03;34.53;;;;;;;2.18;100.00;100571.38;5177964;23;20121;-80
2021/01/26 08:36:00;;;;;;;78.55;34.80;;;;;;;2.25;100.00;100577.84;5013714;28;20072;-81
2021/01/26 08:38:47;;;;;;;74.43;33.50;;;;;;;2.28;100.00;100579.91;4990703;28;20136;-80
2021/01/26 08:41:32;;;;;;;73.18;32.78;;;;;;;2.34;100.00;100591.97;5011158;28;20482;-80
2021/01/26 08:43:57;;;;;;;75.45;34.88;;;;;;;2.46;100.00;100597.53;4985926;28;20035;-80
2021/01/26 08:46:32;;;;;;;72.18;32.92;;;;;;;2.48;100.00;100592.69;4993390;28;20045;-80
2021/01/26 08:49:01;;;;;;;74.50;34.08;;;;;;;2.60;100.00;100594.81;4962406;28;20038;-80
2021/01/26 08:51:27;;;;;;;77.63;34.70;;;;;;;2.67;100.00;100600.50;4991537;28;20348;-80
2021/01/26 08:53:53;;;;;;;91.65;38.72;;;;;;;2.67;100.00;100590.63;4980704;28;20096;-80
2021/01/26 08:56:22;;;;;;;84.95;37.97;;;;;;;2.88;100.00;100598.09;4998671;28;20042;-79
2021/01/26 08:58:51;;;;;;;81.30;36.65;;;;;;;3.15;100.00;100596.06;4995898;28;20042;-80
2021/01/26 09:01:22;;;;;;;80.68;38.10;;;;;;;3.37;100.00;100598.63;4990272;28;20057;-79
2021/01/26 09:04:13;;;;;;;79.65;36.67;;;;;;;3.40;100.00;100605.22;5000412;28;20085;-80
2021/01/26 09:06:39;;;;;;;70.13;34.30;;;;;;;3.36;100.00;100598.94;4992347;28;20034;-80
2021/01/26 09:09:06;;;;;;;69.22;35.03;;;;;;;3.31;100.00;100612.41;4998159;28;20557;-80
2021/01/26 09:11:43;;;;;;;75.78;35.67;;;;;;;3.51;100.00;100617.94;4976893;28;20497;-80
2021/01/26 09:14:26;;;;;;;70.70;35.38;;;;;;;3.66;100.00;100624.72;4987358;28;20038;-80
2021/01/26 09:16:58;;;;;;;72.82;35.45;;;;;;;3.66;100.00;100627.38;5009541;28;20046;-80
2021/01/26 09:19:35;;;;;;;71.47;35.28;;;;;;;3.67;99.89;100621.78;4983417;28;20100;-79
2021/01/26 09:22:17;;;;;;;70.88;34.20;;;;;;;3.65;100.00;100618.63;4992444;28;20034;-79
2021/01/26 09:24:42;;;;;;;73.60;34.65;;;;;;;3.70;100.00;100624.91;4967780;28;20040;-79
2021/01/26 09:27:34;;;;;;;71.07;33.88;;;;;;;3.54;100.00;100627.97;4975494;28;20094;-79
2021/01/26 09:30:04;;;;;;;63.38;33.00;;;;;;;3.47;100.00;100626.84;4989093;28;20035;-80
2021/01/26 09:32:30;;;;;;;76.38;35.47;;;;;;;3.55;100.00;100629.56;4978160;28;20454;-79
2021/01/26 09:35:18;;;;;;;73.97;36.13;;;;;;;3.66;100.00;100636.16;4969541;28;20026;-80
2021/01/26 09:37:43;;;;;;;73.78;35.70;;;;;;;3.76;100.00;100644.94;5005529;28;20100;-79
2021/01/26 09:40:12;;;;;;;72.85;34.67;;;;;;;3.82;100.00;100641.03;5003424;28;20085;-80
2021/01/26 09:42:40;;;;;;;68.18;35.65;;;;;;;3.89;100.00;100649.38;4995316;28;20034;-79
2021/01/26 09:45:09;;;;;;;72.10;34.95;;;;;;;3.88;100.00;100653.91;4991009;28;20309;-79
2021/01/26 09:47:37;;;;;;;67.35;35.85;;;;;;;3.93;100.00;100650.34;4978365;28;20041;-80
2021/01/26 09:50:07;;;;;;;67.72;35.30;;;;;;;3.90;100.00;100645.63;4990664;28;20034;-80
2021/01/26 09:52:33;;;;;;;70.70;35.85;;;;;;;3.82;100.00;100667.69;4968268;28;20042;-79
2021/01/26 09:55:11;;;;;;;70.35;36.63;;;;;;;3.69;100.00;100661.38;4977577;28;20022;-80
2021/01/26 09:57:39;;;;;;;74.05;36.13;;;;;;;3.93;100.00;100666.31;4973079;28;20047;-79
2021/01/26 10:00:16;;;;;;;74.57;35.28;;;;;;;3.79;100.00;100668.31;4988799;28;20147;-79
2021/01/26 10:02:43;;;;;;;69.53;34.65;;;;;;;3.82;100.00;100673.00;4983895;28;20527;-80
2021/01/26 10:05:33;;;;;;;71.28;37.10;;;;;;;3.87;100.00;100670.22;4987700;28;20086;-80
2021/01/26 10:08:26;;;;;;;73.38;36.20;;;;;;;3.80;100.00;100675.19;4927309;29;20203;-79
2021/01/26 10:10:52;;;;;;;74.18;35.13;;;;;;;3.74;100.00;100674.56;4924791;29;20052;-79
2021/01/26 10:13:23;;;;;;;75.90;35.85;;;;;;;3.89;100.00;100660.03;4913094;29;20043;-79
2021/01/26 10:15:48;;;;;;;76.18;37.08;;;;;;;4.00;100.00;100666.63;4931654;29;20106;-79
2021/01/26 10:18:42;;;;;;;70.53;37.13;;;;;;;4.22;100.00;100655.88;4920430;29;20043;-80
2021/01/26 10:21:13;;;;;;;75.03;35.55;;;;;;;4.09;100.00;100667.44;4940390;29;20122;-79
2021/01/26 10:24:06;;;;;;;71.25;36.55;;;;;;;4.04;100.00;100667.59;4914890;29;20099;-79
2021/01/26 10:26:35;;;;;;;66.65;33.72;;;;;;;4.18;100.00;100676.25;4850508;29;20124;-79
2021/01/26 10:29:06;;;;;;;73.13;34.72;;;;;;;4.17;100.00;100677.31;4863669;29;20079;-79
2021/01/26 10:32:02;;;;;;;70.25;35.67;;;;;;;4.26;100.00;100680.78;4856516;29;20048;-79
2021/01/26 10:34:30;;;;;;;70.97;35.30;;;;;;;4.37;100.00;100682.84;4828862;29;20128;-79
2021/01/26 10:37:11;;;;;;;66.35;34.45;;;;;;;4.35;100.00;100678.91;4855703;29;20566;-79
2021/01/26 10:39:37;;;;;;;65.35;33.30;;;;;;;4.36;100.00;100680.47;4841221;29;20093;-79
2021/01/26 10:42:07;;;;;;;68.88;34.13;;;;;;;4.38;100.00;100686.28;4863927;29;20076;-79
2021/01/26 10:44:42;;;;;;;73.38;35.75;;;;;;;4.30;100.00;100671.84;4869990;29;20936;-80
2021/01/26 10:47:27;;;;;;;71.30;35.35;;;;;;;4.61;100.00;100678.94;4927076;29;20652;-79
2021/01/26 10:49:59;;;;;;;71.22;33.90;;;;;;;4.85;100.00;100685.34;4909531;29;20044;-82
2021/01/26 10:52:41;;;;;;;;;;;;;;;5.00;100.00;100684.88;4910942;29;20075;-79
2021/01/26 10:55:11;;;;;;;65.90;32.35;;;;;;;5.01;100.00;100685.66;4918259;29;19923;-79
2021/01/26 10:57:38;;;;;;;67.03;32.47;;;;;;;4.90;100.00;100693.19;4903110;29;20083;-79
2021/01/26 11:00:05;;;;;;;68.35;33.85;;;;;;;5.07;100.00;100687.81;4911798;29;20087;-79
2021/01/26 11:02:31;;;;;;;67.88;33.30;;;;;;;5.29;100.00;100695.63;4896829;28;20036;-78
2021/01/26 11:04:56;;;;;;;59.83;31.40;;;;;;;5.56;99.24;100696.31;4983970;28;20065;-79
2021/01/26 11:07:22;;;;;;;64.53;32.30;;;;;;;5.51;99.91;100686.63;4975150;28;20446;-78
2021/01/26 11:09:49;;;;;;;61.83;32.40;;;;;;;5.28;100.00;100686.03;4975543;28;20030;-78
2021/01/26 11:12:16;;;;;;;57.63;31.35;;;;;;;5.63;99.78;100685.94;4972584;28;20085;-79
2021/01/26 11:14:42;;;;;;;60.95;29.60;;;;;;;5.37;99.57;100691.38;4990315;28;20038;-79
2021/01/26 11:17:07;;;;;;;56.83;29.38;;;;;;;5.63;99.03;100692.09;4974392;28;20045;-79
2021/01/26 11:19:33;;;;;;;58.15;29.88;;;;;;;5.61;98.73;100696.16;4971937;28;20077;-79
2021/01/26 11:21:59;;;;;;;52.50;29.23;;;;;;;5.53;98.73;100703.88;4985520;28;20034;-79
2021/01/26 11:24:24;;;;;;;58.65;29.30;;;;;;;5.80;98.03;100707.25;4986217;28;20547;-79
2021/01/26 11:26:50;;;;;;;55.25;28.63;;;;;;;5.58;97.78;100702.91;4986711;28;20491;-79
2021/01/26 11:29:16;;;;;;;50.25;26.58;;;;;;;5.70;97.19;100708.38;4974120;28;20483;-79
2021/01/26 11:31:41;;;;;;;50.47;26.42;;;;;;;5.69;97.98;100714.06;4990171;28;20065;-79
2021/01/26 11:34:07;;;;;;;50.35;26.30;;;;;;;5.47;99.37;100718.53;4973006;28;20046;-79
2021/01/26 11:36:32;;;;;;;48.88;25.42;;;;;;;5.32;99.67;100707.56;4974066;28;20088;-79
2021/01/26 11:38:58;;;;;;;43.10;24.58;;;;;;;5.12;100.00;100709.03;4999699;28;20034;-79
2021/01/26 11:41:24;;;;;;;46.05;23.88;;;;;;;5.29;100.00;100713.53;4973388;28;20058;-79
2021/01/26 11:43:49;;;;;;;41.20;23.52;;;;;;;5.12;100.00;100706.34;4969254;28;20027;-79
2021/01/26 11:46:15;;;;;;;50.88;24.73;;;;;;;5.23;99.72;100710.25;4976888;28;20038;-79
2021/01/26 11:48:40;;;;;;;39.47;21.98;;;;;;;5.25;100.00;100705.38;4985085;28;20043;-79